Kezdőlap
METAR-TAF:

METAR-TAF

Repülőterek :

Florianópolis, Santa Catarina, Brazília

földrajzi szélesség: 27-40S, földrajzi hosszúság: 048-33W, magasság: 5 m

Jelenlegi meteorológiai megfigyelések

A jelentés 31 perccel ezelõtt készült, 21:00 UTC
Szélcsend
Hőmérséklet 18°C
Páratartalom 94%
Légköri nyomás 1015 hPa
Látótávolság 10 km, vagy több
felhőtlen 1500 m magasságban, és nincs gomolyfelhõ

METAR: SBFL 192100Z 00000KT CAVOK 18/17 Q1015

Idő: 18:31 (21:31 UTC)

Előrejelzés

A jelentés 5 órával és 16 perccel ezelõtt készült, 16:15 UTC
Az előrejelzés 19-én 18 óra UTC és 20-én 18 óra UTC között érvényes
Északi szél 8 kt
Látótávolság 10 km, vagy több
felhőtlen 1500 m magasságban, és nincs gomolyfelhõ

TAF: SBFL 191615Z 1918/2018 36008KT CAVOK TN19/2008Z TX27/2017Z RMK PC X

Meteorológiai megfigyelések és előrejelzések több, mint 4000 repülőtéren (METAR és TAF jelentéseket).

A térképen piros és sárga pontok jelzik az elérhető meteorológiai állomásokat.

Mozgassa az egeret a pont fölött, hogy megjelenjen az állomás neve.

Azután kattintson az időjárási megfigyelések és előrejelzések megtekintéséhez.

A térkép megváltoztatása: kattintson a fekete keresztel jelölt zöld gombra ráközelítéshez, a vonallal jelölt zöld gombra távolításhoz, vagy a zöld nyilakra a szomszédos térképek eléréséhez.


METAR-TAF: